createdAt,value
2022-08-10T00:00:57.221Z,89.82
2022-08-10T00:03:25.203Z,89.45
2022-08-10T00:05:56.507Z,88.75
2022-08-10T00:08:26.096Z,88.96
2022-08-10T00:10:54.218Z,90.00
2022-08-10T00:13:22.493Z,89.38
2022-08-10T00:15:53.860Z,88.92
2022-08-10T00:18:34.985Z,88.45
2022-08-10T00:21:06.809Z,87.77
2022-08-10T00:23:34.971Z,88.89
2022-08-10T00:26:03.280Z,89.08
2022-08-10T00:28:31.723Z,89.44
2022-08-10T00:30:59.821Z,89.79
2022-08-10T00:33:28.112Z,89.40
2022-08-10T00:35:55.986Z,89.19
2022-08-10T00:38:25.344Z,89.79
2022-08-10T00:40:53.156Z,89.76
2022-08-10T00:43:23.824Z,89.18
2022-08-10T00:45:58.801Z,88.74
2022-08-10T00:48:29.426Z,88.27
2022-08-10T00:50:57.533Z,88.44
2022-08-10T00:53:26.878Z,89.15
2022-08-10T00:57:15.050Z,89.41
2022-08-10T00:58:43.293Z,90.27
2022-08-10T01:02:07.729Z,89.97
2022-08-10T01:04:36.312Z,90.71
2022-08-10T01:06:56.828Z,90.13
2022-08-10T01:09:35.462Z,90.37
2022-08-10T01:12:40.421Z,90.53
2022-08-10T01:15:03.663Z,90.57
2022-08-10T01:17:50.678Z,91.28
2022-08-10T01:20:27.283Z,91.15
2022-08-10T01:23:25.064Z,90.41
2022-08-10T01:26:31.583Z,90.42
2022-08-10T01:29:16.283Z,90.58
2022-08-10T01:31:47.596Z,90.99
2022-08-10T01:34:20.613Z,89.98
2022-08-10T01:36:51.652Z,90.24
2022-08-10T01:39:24.218Z,90.11
2022-08-10T01:41:56.874Z,91.34
2022-08-10T01:44:28.808Z,91.09
2022-08-10T01:47:22.629Z,91.53
2022-08-10T01:49:54.242Z,91.34
2022-08-10T01:52:24.978Z,90.95
2022-08-10T01:54:53.936Z,90.42
2022-08-10T01:57:24.720Z,91.19
2022-08-10T01:59:54.766Z,91.14
2022-08-10T02:02:31.881Z,91.03
2022-08-10T02:05:00.976Z,90.60
2022-08-10T02:07:30.194Z,89.62
2022-08-10T02:10:02.065Z,89.79
2022-08-10T02:12:32.600Z,90.89
2022-08-10T02:15:03.679Z,90.51
2022-08-10T02:17:59.529Z,91.62
2022-08-10T02:20:25.806Z,90.82
2022-08-10T02:22:58.154Z,90.91
2022-08-10T02:25:42.393Z,90.67
2022-08-10T02:28:30.596Z,90.12
2022-08-10T02:31:01.720Z,90.10
2022-08-10T02:33:31.233Z,90.18
2022-08-10T02:36:01.807Z,90.26
2022-08-10T02:38:58.873Z,90.24
2022-08-10T02:45:12.667Z,91.17
2022-08-10T02:45:20.593Z,90.43
2022-08-10T02:47:11.615Z,90.55
2022-08-10T02:49:44.988Z,90.58
2022-08-10T02:52:18.312Z,90.57
2022-08-10T02:54:51.207Z,91.44
2022-08-10T02:57:21.414Z,92.21
2022-08-10T02:59:53.440Z,92.59
2022-08-10T03:02:22.160Z,92.84
2022-08-10T03:04:57.734Z,93.87
2022-08-10T03:07:44.014Z,93.40
2022-08-10T03:10:16.106Z,92.70
2022-08-10T03:12:44.810Z,92.30
2022-08-10T03:15:15.730Z,92.18
2022-08-10T03:17:57.083Z,92.00
2022-08-10T03:20:38.057Z,91.85
2022-08-10T03:23:10.447Z,91.97
2022-08-10T03:25:39.072Z,92.28
2022-08-10T03:28:07.601Z,92.76
2022-08-10T03:30:36.288Z,92.03
2022-08-10T03:33:05.916Z,91.35
2022-08-10T03:35:35.686Z,91.70
2022-08-10T03:38:04.107Z,91.71
2022-08-10T03:40:45.999Z,95.26
2022-08-10T03:43:17.392Z,98.71
2022-08-10T03:45:54.549Z,98.38
2022-08-10T03:48:24.586Z,97.18
2022-08-10T03:51:02.665Z,97.22
2022-08-10T03:54:05.703Z,97.33
2022-08-10T03:56:30.419Z,97.32
2022-08-10T03:58:59.911Z,97.00
2022-08-10T04:02:41.964Z,96.72
2022-08-10T04:04:20.961Z,98.53
2022-08-10T04:06:55.607Z,98.25
2022-08-10T04:09:23.858Z,97.52
2022-08-10T04:11:51.660Z,97.44
2022-08-10T04:14:38.655Z,97.43
2022-08-10T04:17:11.991Z,96.79
2022-08-10T04:19:47.475Z,96.49
2022-08-10T04:22:19.468Z,96.03
2022-08-10T04:24:47.363Z,95.46
2022-08-10T04:27:16.186Z,96.07
2022-08-10T04:29:44.755Z,96.28
2022-08-10T04:32:13.880Z,96.06
2022-08-10T04:34:43.385Z,95.55
2022-08-10T04:37:13.072Z,95.69
2022-08-10T04:39:42.537Z,95.88
2022-08-10T04:42:10.882Z,95.72
2022-08-10T04:44:38.820Z,95.45
2022-08-10T04:47:08.035Z,95.77
2022-08-10T04:49:54.931Z,96.60
2022-08-10T04:52:33.164Z,96.63
2022-08-10T04:55:04.264Z,96.67
2022-08-10T04:57:31.996Z,96.37
2022-08-10T04:59:59.820Z,95.76
2022-08-10T05:02:31.058Z,95.64
2022-08-10T05:05:00.274Z,95.33
2022-08-10T05:07:28.438Z,94.89
2022-08-10T05:10:04.179Z,94.56
2022-08-10T05:12:37.357Z,93.80
2022-08-10T05:15:07.768Z,93.50
2022-08-10T05:17:36.289Z,93.36
2022-08-10T05:20:06.848Z,93.48
2022-08-10T05:22:37.048Z,92.55
2022-08-10T05:25:06.214Z,92.50
2022-08-10T05:27:35.823Z,92.08
2022-08-10T05:30:04.853Z,91.56
2022-08-10T05:32:56.690Z,91.38
2022-08-10T05:35:24.175Z,91.21
2022-08-10T05:38:10.340Z,90.88
2022-08-10T05:40:46.772Z,91.07
2022-08-10T05:43:18.764Z,90.72
2022-08-10T05:46:19.267Z,90.19
2022-08-10T05:48:58.001Z,89.93
2022-08-10T05:51:29.403Z,90.58
2022-08-10T05:54:00.956Z,90.57
2022-08-10T05:56:56.215Z,89.50
2022-08-10T06:00:34.284Z,89.36
2022-08-10T06:02:32.708Z,89.02
2022-08-10T06:05:06.442Z,89.37
2022-08-10T06:07:36.816Z,88.74
2022-08-10T06:10:10.226Z,88.26
2022-08-10T06:12:55.061Z,88.84
2022-08-10T06:15:50.184Z,88.37
2022-08-10T06:18:14.558Z,87.11
2022-08-10T06:20:42.958Z,85.80
2022-08-10T06:23:11.661Z,85.57
2022-08-10T06:26:11.038Z,86.23
2022-08-10T06:28:30.151Z,86.46
2022-08-10T06:31:00.921Z,85.85
2022-08-10T06:33:31.791Z,85.07
2022-08-10T06:36:00.950Z,86.04
2022-08-10T06:38:31.773Z,84.90
2022-08-10T06:41:03.056Z,84.56
2022-08-10T06:43:32.086Z,83.77
2022-08-10T06:46:07.832Z,83.69
2022-08-10T06:48:40.434Z,82.99
2022-08-10T06:51:09.733Z,83.04
2022-08-10T06:53:53.825Z,84.06
2022-08-10T06:56:37.490Z,82.23
2022-08-10T06:59:14.557Z,81.43
2022-08-10T07:01:51.809Z,80.27
2022-08-10T07:04:32.609Z,81.05
2022-08-10T07:07:03.284Z,79.33
2022-08-10T07:09:33.932Z,77.63
2022-08-10T07:12:08.165Z,76.70
2022-08-10T07:14:38.992Z,76.80
2022-08-10T07:17:09.130Z,75.46
2022-08-10T07:19:49.474Z,75.01
2022-08-10T07:23:50.795Z,74.56
2022-08-10T07:25:13.423Z,71.85
2022-08-10T07:27:59.525Z,70.36
2022-08-10T07:30:30.806Z,71.54
2022-08-10T07:33:01.765Z,70.87
2022-08-10T07:35:37.076Z,70.98
2022-08-10T07:38:14.453Z,71.30
2022-08-10T07:40:43.558Z,70.29
2022-08-10T07:43:12.316Z,70.07
2022-08-10T07:45:40.482Z,68.86
2022-08-10T07:48:13.301Z,68.63
2022-08-10T07:50:42.151Z,68.86
2022-08-10T07:53:20.202Z,68.07
2022-08-10T07:56:05.506Z,67.30
2022-08-10T07:58:46.437Z,68.30
2022-08-10T08:01:22.764Z,67.23
2022-08-10T08:04:10.706Z,66.33
2022-08-10T08:06:41.497Z,66.47
2022-08-10T08:09:09.778Z,66.36
2022-08-10T08:11:39.064Z,66.44
2022-08-10T08:14:09.322Z,66.99
2022-08-10T08:16:39.590Z,67.29
2022-08-10T08:19:26.933Z,65.43
2022-08-10T08:24:07.806Z,63.85
2022-08-10T08:24:44.639Z,64.11
2022-08-10T08:27:15.400Z,63.81
2022-08-10T08:29:44.749Z,64.94
2022-08-10T08:32:14.178Z,64.13
2022-08-10T08:34:44.958Z,64.86
2022-08-10T08:37:18.861Z,65.17
2022-08-10T08:40:04.112Z,63.25
2022-08-10T08:43:02.306Z,62.93
2022-08-10T08:45:37.581Z,62.79
2022-08-10T08:48:26.859Z,63.43
2022-08-10T08:51:08.686Z,64.27
2022-08-10T08:54:02.494Z,63.31
2022-08-10T08:56:36.261Z,62.27
2022-08-10T08:59:12.964Z,62.63
2022-08-10T09:02:02.792Z,61.65
2022-08-10T09:04:50.010Z,59.95
2022-08-10T09:08:01.005Z,58.99
2022-08-10T09:10:35.340Z,58.89
2022-08-10T09:13:06.479Z,57.72
2022-08-10T09:15:39.910Z,58.62
2022-08-10T09:18:15.277Z,59.36
2022-08-10T09:20:48.144Z,58.30
2022-08-10T09:23:21.773Z,58.52
2022-08-10T09:26:14.125Z,58.56
2022-08-10T09:28:44.682Z,59.07
2022-08-10T09:31:29.261Z,58.86
2022-08-10T09:36:21.267Z,58.21
2022-08-10T09:36:59.564Z,56.44
2022-08-10T09:40:56.014Z,55.72
2022-08-10T09:42:34.775Z,55.08
2022-08-10T09:45:06.971Z,54.29
2022-08-10T09:48:01.394Z,52.72
2022-08-10T09:51:16.292Z,53.59
2022-08-10T09:53:32.454Z,51.61
2022-08-10T09:56:19.337Z,51.62
2022-08-10T09:59:56.586Z,50.89
2022-08-10T10:02:02.690Z,50.87
2022-08-10T10:04:42.622Z,51.68
2022-08-10T10:07:12.275Z,51.96
2022-08-10T10:09:44.614Z,50.04
2022-08-10T10:12:20.863Z,49.76
2022-08-10T10:15:25.059Z,50.24
2022-08-10T10:18:15.697Z,49.49
2022-08-10T10:20:51.021Z,48.80
2022-08-10T10:23:25.085Z,49.01
2022-08-10T10:26:05.044Z,50.01
2022-08-10T10:29:19.629Z,49.97
2022-08-10T10:31:35.743Z,49.26
2022-08-10T10:34:10.689Z,49.68
2022-08-10T10:36:39.185Z,50.37
2022-08-10T10:39:07.932Z,49.95
2022-08-10T10:42:03.714Z,50.99
2022-08-10T10:44:50.023Z,52.54
2022-08-10T10:47:38.526Z,51.53
2022-08-10T10:50:12.223Z,49.84
2022-08-10T10:52:50.351Z,48.43
2022-08-10T10:55:22.876Z,48.98
2022-08-10T10:58:01.207Z,48.95
2022-08-10T11:00:38.558Z,48.09
2022-08-10T11:03:38.072Z,46.58
2022-08-10T11:06:13.877Z,46.52
2022-08-10T11:08:45.633Z,47.71
2022-08-10T11:12:01.595Z,47.51
2022-08-10T11:14:24.800Z,47.30
2022-08-10T11:17:02.638Z,46.85
2022-08-10T11:20:02.311Z,46.98
2022-08-10T11:22:36.724Z,47.41
2022-08-10T11:25:11.325Z,47.09
2022-08-10T11:27:44.752Z,47.08
2022-08-10T11:30:15.235Z,46.46
2022-08-10T11:32:57.228Z,45.93
2022-08-10T11:35:34.797Z,43.97
2022-08-10T11:38:34.719Z,43.34
2022-08-10T11:42:06.534Z,42.42
2022-08-10T11:44:00.651Z,43.33
2022-08-10T11:46:32.612Z,43.14
2022-08-10T11:49:07.498Z,42.51
2022-08-10T11:51:43.661Z,41.51
2022-08-10T11:54:16.385Z,42.33
2022-08-10T11:56:49.150Z,40.67
2022-08-10T11:59:36.467Z,40.43
2022-08-10T12:02:05.904Z,40.09
2022-08-10T12:04:35.735Z,41.58
2022-08-10T12:10:03.449Z,42.25
2022-08-10T12:10:09.588Z,41.22
2022-08-10T12:12:46.028Z,42.40
2022-08-10T12:15:19.570Z,42.15
2022-08-10T12:17:51.313Z,42.35
2022-08-10T12:20:27.729Z,42.97
2022-08-10T12:22:59.090Z,43.42
2022-08-10T12:25:57.996Z,44.07
2022-08-10T12:28:20.356Z,46.67
2022-08-10T12:30:52.175Z,46.84
2022-08-10T12:33:24.326Z,46.88
2022-08-10T12:36:17.925Z,45.44
2022-08-10T12:38:53.061Z,45.95
2022-08-10T12:41:43.599Z,46.61
2022-08-10T12:44:14.649Z,47.43
2022-08-10T12:46:48.687Z,46.54
2022-08-10T12:49:22.690Z,48.04
2022-08-10T12:52:02.784Z,47.19
2022-08-10T12:54:36.244Z,48.13
2022-08-10T12:57:09.068Z,47.75
2022-08-10T12:59:43.218Z,47.09
2022-08-10T13:02:13.854Z,49.04
2022-08-10T13:04:43.436Z,48.71
2022-08-10T13:08:03.691Z,47.73
2022-08-10T13:10:08.552Z,45.53
2022-08-10T13:12:40.557Z,44.49
2022-08-10T13:15:46.223Z,42.81
2022-08-10T13:18:18.647Z,42.73
2022-08-10T13:20:51.634Z,42.29
2022-08-10T13:23:23.898Z,42.72
2022-08-10T13:25:53.345Z,42.09
2022-08-10T13:28:36.566Z,40.23
2022-08-10T13:31:11.484Z,39.37
2022-08-10T13:34:38.906Z,40.62
2022-08-10T13:36:38.968Z,40.42
2022-08-10T13:39:08.763Z,40.57
2022-08-10T13:41:40.185Z,38.98
2022-08-10T13:44:08.221Z,38.19
2022-08-10T13:46:40.429Z,38.20
2022-08-10T13:49:10.326Z,36.83
2022-08-10T13:51:57.181Z,37.59
2022-08-10T13:54:31.150Z,36.86
2022-08-10T13:56:59.259Z,34.92
2022-08-10T14:00:36.477Z,33.76
2022-08-10T14:02:25.277Z,34.77
2022-08-10T14:04:54.410Z,33.84
2022-08-10T14:07:23.778Z,32.58
2022-08-10T14:10:07.103Z,31.81
2022-08-10T14:12:37.116Z,32.55
2022-08-10T14:15:07.957Z,31.91
2022-08-10T14:17:40.164Z,32.89
2022-08-10T14:20:14.799Z,33.07
2022-08-10T14:22:45.136Z,32.50
2022-08-10T14:25:16.323Z,31.90
2022-08-10T14:28:02.881Z,32.85
2022-08-10T14:30:32.531Z,33.11
2022-08-10T14:33:04.986Z,33.21
2022-08-10T14:36:21.386Z,33.37
2022-08-10T14:38:24.690Z,33.42
2022-08-10T14:40:56.511Z,33.21
2022-08-10T14:43:29.085Z,32.46
2022-08-10T14:46:01.413Z,33.43
2022-08-10T14:48:33.279Z,33.96
2022-08-10T14:51:02.398Z,34.70
2022-08-10T14:53:34.423Z,34.91
2022-08-10T14:56:07.700Z,35.20
2022-08-10T14:58:38.621Z,35.18
2022-08-10T15:01:08.241Z,35.36
2022-08-10T15:04:01.655Z,36.77
2022-08-10T15:06:30.387Z,37.83
2022-08-10T15:09:05.122Z,37.89
2022-08-10T15:12:13.200Z,37.63
2022-08-10T15:14:41.579Z,37.67
2022-08-10T15:17:13.618Z,36.27
2022-08-10T15:20:02.075Z,35.92
2022-08-10T15:22:49.941Z,36.17
2022-08-10T15:25:25.142Z,35.44
2022-08-10T15:28:05.729Z,36.82
2022-08-10T15:30:40.535Z,34.67
2022-08-10T15:34:02.631Z,34.48
2022-08-10T15:36:34.815Z,35.25
2022-08-10T15:39:05.189Z,35.85
2022-08-10T15:41:59.580Z,36.29
2022-08-10T15:44:40.663Z,36.52
2022-08-10T15:47:12.617Z,36.26
2022-08-10T15:49:46.986Z,37.19
2022-08-10T15:52:39.235Z,37.77
2022-08-10T15:55:42.995Z,38.54
2022-08-10T15:58:04.433Z,39.08
2022-08-10T16:00:38.877Z,39.48
2022-08-10T16:03:12.931Z,39.87
2022-08-10T16:06:00.642Z,40.50
2022-08-10T16:08:55.967Z,40.89
2022-08-10T16:11:37.566Z,41.39
2022-08-10T16:14:14.490Z,41.77
2022-08-10T16:16:48.768Z,42.53
2022-08-10T16:19:24.373Z,43.43
2022-08-10T16:22:00.574Z,43.54
2022-08-10T16:24:33.213Z,44.17
2022-08-10T16:27:04.821Z,44.45
2022-08-10T16:29:56.111Z,44.98
2022-08-10T16:32:24.934Z,45.15
2022-08-10T16:34:53.499Z,45.46
2022-08-10T16:37:22.197Z,46.06
2022-08-10T16:39:56.885Z,46.18
2022-08-10T16:42:31.313Z,46.82
2022-08-10T16:45:08.856Z,47.29
2022-08-10T16:47:40.527Z,47.60
2022-08-10T16:50:11.741Z,47.24
2022-08-10T16:52:41.182Z,48.22
2022-08-10T16:55:24.060Z,47.67
2022-08-10T16:58:07.134Z,48.82
2022-08-10T17:00:36.048Z,48.76
2022-08-10T17:04:04.447Z,49.58
2022-08-10T17:06:01.570Z,49.74
2022-08-10T17:08:40.935Z,50.75
2022-08-10T17:11:17.307Z,50.12
2022-08-10T17:13:45.278Z,50.43
2022-08-10T17:16:13.883Z,50.59
2022-08-10T17:18:47.035Z,50.91
2022-08-10T17:21:23.631Z,50.35
2022-08-10T17:23:54.400Z,50.49
2022-08-10T17:26:35.299Z,50.40
2022-08-10T17:29:09.790Z,50.84
2022-08-10T17:32:00.010Z,50.79
2022-08-10T17:34:33.678Z,51.27
2022-08-10T17:37:05.445Z,51.48
2022-08-10T17:39:44.776Z,51.04
2022-08-10T17:42:20.759Z,51.97
2022-08-10T17:44:50.283Z,51.62
2022-08-10T17:47:19.435Z,51.84
2022-08-10T17:49:49.064Z,51.81
2022-08-10T17:52:21.695Z,52.30
2022-08-10T17:54:55.690Z,52.53
2022-08-10T17:57:24.372Z,52.81
2022-08-10T17:59:53.091Z,53.47
2022-08-10T18:02:24.770Z,54.14
2022-08-10T18:04:55.486Z,54.25
2022-08-10T18:07:31.080Z,54.42
2022-08-10T18:09:59.191Z,54.82
2022-08-10T18:12:36.028Z,54.79
2022-08-10T18:15:08.501Z,55.08
2022-08-10T18:17:42.569Z,55.23
2022-08-10T18:20:14.625Z,55.65
2022-08-10T18:22:45.961Z,56.22
2022-08-10T18:25:19.242Z,55.83
2022-08-10T18:28:04.552Z,56.17
2022-08-10T18:30:36.628Z,56.99
2022-08-10T18:33:06.354Z,56.93
2022-08-10T18:35:35.882Z,56.96
2022-08-10T18:38:04.896Z,57.52
2022-08-10T18:40:36.381Z,58.23
2022-08-10T18:44:05.510Z,57.82
2022-08-10T18:45:57.269Z,57.76
2022-08-10T18:48:29.278Z,57.64
2022-08-10T18:51:05.091Z,57.49
2022-08-10T18:53:36.481Z,58.92
2022-08-10T18:56:13.036Z,60.64
2022-08-10T18:58:55.944Z,62.42
2022-08-10T19:01:56.219Z,62.67
2022-08-10T19:04:32.688Z,63.72
2022-08-10T19:07:13.394Z,64.56
2022-08-10T19:09:58.211Z,65.75
2022-08-10T19:12:43.215Z,66.69
2022-08-10T19:15:20.721Z,68.19
2022-08-10T19:17:59.097Z,69.23
2022-08-10T19:20:40.621Z,70.44
2022-08-10T19:23:19.905Z,72.11
2022-08-10T19:26:37.924Z,72.95
2022-08-10T19:28:46.420Z,72.62
2022-08-10T19:31:23.492Z,71.69
2022-08-10T19:34:18.411Z,71.08
2022-08-10T19:36:54.327Z,72.67
2022-08-10T19:39:29.015Z,72.45
2022-08-10T19:42:11.351Z,71.69
2022-08-10T19:44:51.303Z,72.57
2022-08-10T19:47:26.842Z,72.57
2022-08-10T19:50:01.120Z,73.61
2022-08-10T19:52:36.147Z,73.64
2022-08-10T19:55:16.454Z,72.58
2022-08-10T19:57:51.416Z,72.33
2022-08-10T20:00:24.222Z,74.07
2022-08-10T20:03:01.433Z,74.79
2022-08-10T20:05:39.152Z,74.83
2022-08-10T20:08:14.443Z,74.97
2022-08-10T20:10:50.107Z,74.96
2022-08-10T20:13:23.864Z,74.97
2022-08-10T20:16:07.072Z,75.08
2022-08-10T20:18:40.118Z,75.21
2022-08-10T20:21:14.416Z,75.85
2022-08-10T20:23:55.670Z,76.14
2022-08-10T20:26:28.504Z,77.43
2022-08-10T20:29:06.185Z,77.23
2022-08-10T20:31:42.024Z,77.91
2022-08-10T20:34:18.218Z,77.80
2022-08-10T20:36:52.479Z,77.53
2022-08-10T20:39:29.290Z,77.39
2022-08-10T20:42:05.050Z,79.06
2022-08-10T20:44:40.454Z,79.05
2022-08-10T20:47:12.333Z,78.80
2022-08-10T20:49:45.934Z,78.40
2022-08-10T20:52:14.710Z,78.02
2022-08-10T20:54:46.039Z,77.37
2022-08-10T20:57:54.165Z,78.21
2022-08-10T21:00:14.023Z,79.36
2022-08-10T21:02:59.065Z,80.31
2022-08-10T21:05:40.566Z,80.73
2022-08-10T21:08:15.297Z,80.40
2022-08-10T21:10:53.602Z,80.04
2022-08-10T21:13:36.291Z,80.13
2022-08-10T21:16:11.435Z,79.83
2022-08-10T21:19:09.408Z,80.35
2022-08-10T21:21:58.956Z,79.67
2022-08-10T21:24:33.010Z,79.88
2022-08-10T21:27:08.094Z,80.82
2022-08-10T21:29:47.707Z,80.36
2022-08-10T21:32:33.094Z,80.13
2022-08-10T21:35:09.332Z,80.18
2022-08-10T21:37:42.808Z,80.52
2022-08-10T21:40:35.721Z,80.65
2022-08-10T21:43:44.595Z,80.80
2022-08-10T21:46:54.634Z,80.61
2022-08-10T21:49:52.726Z,80.64
2022-08-10T21:52:42.367Z,80.91
2022-08-10T21:55:58.154Z,81.98
2022-08-10T21:58:48.906Z,82.14
2022-08-10T22:01:40.250Z,81.98
2022-08-10T22:04:26.090Z,82.00
2022-08-10T22:07:12.919Z,81.88
2022-08-10T22:10:04.492Z,81.61
2022-08-10T22:12:57.162Z,81.61
2022-08-10T22:16:05.587Z,81.82
2022-08-10T22:22:27.935Z,83.16
2022-08-10T22:25:34.872Z,83.92
2022-08-10T22:28:20.247Z,84.57
2022-08-10T22:31:27.655Z,82.31
2022-08-10T22:31:29.861Z,85.39
2022-08-10T22:34:27.369Z,84.60
2022-08-10T22:37:21.893Z,84.46
2022-08-10T22:40:21.095Z,86.41
2022-08-10T22:43:10.598Z,87.23
2022-08-10T22:45:57.612Z,87.37
2022-08-10T22:48:43.135Z,87.76
2022-08-10T22:51:16.993Z,86.98
2022-08-10T22:54:04.408Z,86.77
2022-08-10T22:56:55.772Z,86.63
2022-08-10T22:59:28.616Z,86.27
2022-08-10T23:02:07.875Z,86.19
2022-08-10T23:04:44.969Z,86.22
2022-08-10T23:07:22.519Z,85.92
2022-08-10T23:09:57.875Z,85.58
2022-08-10T23:12:31.166Z,85.46
2022-08-10T23:15:18.074Z,85.55
2022-08-10T23:18:08.156Z,85.15
2022-08-10T23:20:37.976Z,86.56
2022-08-10T23:23:10.082Z,87.03
2022-08-10T23:25:57.416Z,86.87
2022-08-10T23:28:39.017Z,87.04
2022-08-10T23:31:16.216Z,89.03
2022-08-10T23:33:45.981Z,88.28
2022-08-10T23:36:34.368Z,88.15
2022-08-10T23:39:27.085Z,88.50
2022-08-10T23:41:57.130Z,88.41
2022-08-10T23:44:25.955Z,87.98
2022-08-10T23:46:53.829Z,88.12
2022-08-10T23:49:23.335Z,88.10
2022-08-10T23:51:56.548Z,88.71
2022-08-10T23:54:26.291Z,90.11
2022-08-10T23:57:01.352Z,90.65
2022-08-10T23:59:31.873Z,91.60
